sensor_id;sensor_type;location;lat;lon;timestamp;pressure;altitude;pressure_sealevel;temperature;humidity
16690;BME280;8458;52.220;9.884;2022-11-14T00:02:25;101210.34;;;6.64;100.00
16690;BME280;8458;52.220;9.884;2022-11-14T00:04:52;101203.59;;;6.60;100.00
16690;BME280;8458;52.220;9.884;2022-11-14T00:07:19;101202.25;;;6.70;100.00
16690;BME280;8458;52.220;9.884;2022-11-14T00:09:45;101202.72;;;6.67;100.00
16690;BME280;8458;52.220;9.884;2022-11-14T00:12:13;101195.19;;;6.55;100.00
16690;BME280;8458;52.220;9.884;2022-11-14T00:14:40;101185.06;;;6.49;100.00
16690;BME280;8458;52.220;9.884;2022-11-14T00:17:06;101191.94;;;6.40;100.00
16690;BME280;8458;52.220;9.884;2022-11-14T00:19:32;101197.44;;;6.40;100.00
16690;BME280;8458;52.220;9.884;2022-11-14T00:21:59;101194.47;;;6.41;100.00
16690;BME280;8458;52.220;9.884;2022-11-14T00:24:26;101191.88;;;6.46;100.00
16690;BME280;8458;52.220;9.884;2022-11-14T00:26:52;101196.09;;;6.49;100.00
16690;BME280;8458;52.220;9.884;2022-11-14T00:29:20;101193.34;;;6.49;100.00
16690;BME280;8458;52.220;9.884;2022-11-14T00:31:46;101194.84;;;6.45;100.00
16690;BME280;8458;52.220;9.884;2022-11-14T00:34:13;101197.44;;;6.40;100.00
16690;BME280;8458;52.220;9.884;2022-11-14T00:36:39;101183.47;;;6.35;100.00
16690;BME280;8458;52.220;9.884;2022-11-14T00:39:06;101187.34;;;6.27;100.00
16690;BME280;8458;52.220;9.884;2022-11-14T00:41:32;101175.94;;;6.23;100.00
16690;BME280;8458;52.220;9.884;2022-11-14T00:43:59;101164.78;;;6.18;100.00
16690;BME280;8458;52.220;9.884;2022-11-14T00:46:27;101163.06;;;6.17;100.00
16690;BME280;8458;52.220;9.884;2022-11-14T00:48:53;101167.34;;;6.13;100.00
16690;BME280;8458;52.220;9.884;2022-11-14T00:51:19;101170.59;;;6.28;100.00
16690;BME280;8458;52.220;9.884;2022-11-14T00:53:46;101167.34;;;6.38;100.00
16690;BME280;8458;52.220;9.884;2022-11-14T00:56:12;101162.84;;;6.44;100.00
16690;BME280;8458;52.220;9.884;2022-11-14T00:58:39;101161.78;;;6.45;100.00
16690;BME280;8458;52.220;9.884;2022-11-14T01:01:05;101164.75;;;6.43;100.00
16690;BME280;8458;52.220;9.884;2022-11-14T01:03:33;101159.03;;;6.45;100.00
16690;BME280;8458;52.220;9.884;2022-11-14T01:06:03;101152.91;;;6.43;100.00
16690;BME280;8458;52.220;9.884;2022-11-14T01:08:30;101151.06;;;6.37;100.00
16690;BME280;8458;52.220;9.884;2022-11-14T01:10:57;101151.31;;;6.28;100.00
16690;BME280;8458;52.220;9.884;2022-11-14T01:13:25;101150.56;;;6.21;100.00
16690;BME280;8458;52.220;9.884;2022-11-14T01:15:52;101149.09;;;6.19;100.00
16690;BME280;8458;52.220;9.884;2022-11-14T01:18:20;101152.50;;;6.14;100.00
16690;BME280;8458;52.220;9.884;2022-11-14T01:20:48;101141.09;;;6.10;100.00
16690;BME280;8458;52.220;9.884;2022-11-14T01:23:15;101135.38;;;6.12;100.00
16690;BME280;8458;52.220;9.884;2022-11-14T01:25:42;101138.97;;;6.13;100.00
16690;BME280;8458;52.220;9.884;2022-11-14T01:28:11;101130.91;;;6.11;100.00
16690;BME280;8458;52.220;9.884;2022-11-14T01:30:38;101137.09;;;6.06;100.00
16690;BME280;8458;52.220;9.884;2022-11-14T01:33:05;101130.31;;;6.09;100.00
16690;BME280;8458;52.220;9.884;2022-11-14T01:35:33;101129.69;;;6.07;100.00
16690;BME280;8458;52.220;9.884;2022-11-14T01:38:01;101125.25;;;6.06;100.00
16690;BME280;8458;52.220;9.884;2022-11-14T01:40:28;101120.81;;;6.05;100.00
16690;BME280;8458;52.220;9.884;2022-11-14T01:43:29;101110.41;;;6.07;100.00
16690;BME280;8458;52.220;9.884;2022-11-14T01:45:59;101115.53;;;6.03;100.00
16690;BME280;8458;52.220;9.884;2022-11-14T01:48:31;101104.44;;;6.10;100.00
16690;BME280;8458;52.220;9.884;2022-11-14T01:51:01;101098.09;;;6.09;100.00
16690;BME280;8458;52.220;9.884;2022-11-14T01:53:30;101096.19;;;6.10;100.00
16690;BME280;8458;52.220;9.884;2022-11-14T01:56:00;101100.94;;;6.03;100.00
16690;BME280;8458;52.220;9.884;2022-11-14T01:58:29;101096.09;;;5.98;100.00
16690;BME280;8458;52.220;9.884;2022-11-14T02:00:56;101092.28;;;5.92;100.00
16690;BME280;8458;52.220;9.884;2022-11-14T02:03:23;101091.91;;;5.89;100.00
16690;BME280;8458;52.220;9.884;2022-11-14T02:05:51;101095.31;;;5.84;100.00
16690;BME280;8458;52.220;9.884;2022-11-14T02:08:18;101091.94;;;5.82;100.00
16690;BME280;8458;52.220;9.884;2022-11-14T02:10:46;101095.78;;;5.81;100.00
16690;BME280;8458;52.220;9.884;2022-11-14T02:13:13;101088.41;;;5.75;100.00
16690;BME280;8458;52.220;9.884;2022-11-14T02:15:40;101087.75;;;5.73;100.00
16690;BME280;8458;52.220;9.884;2022-11-14T02:18:06;101084.22;;;5.66;100.00
16690;BME280;8458;52.220;9.884;2022-11-14T02:20:35;101085.72;;;5.62;100.00
16690;BME280;8458;52.220;9.884;2022-11-14T02:23:07;101087.47;;;5.56;100.00
16690;BME280;8458;52.220;9.884;2022-11-14T02:25:34;101084.94;;;5.54;100.00
16690;BME280;8458;52.220;9.884;2022-11-14T02:28:01;101077.97;;;5.52;100.00
16690;BME280;8458;52.220;9.884;2022-11-14T02:30:27;101077.56;;;5.48;100.00
16690;BME280;8458;52.220;9.884;2022-11-14T02:32:54;101072.69;;;5.50;100.00
16690;BME280;8458;52.220;9.884;2022-11-14T02:35:20;101069.72;;;5.52;100.00
16690;BME280;8458;52.220;9.884;2022-11-14T02:37:48;101071.00;;;5.49;100.00
16690;BME280;8458;52.220;9.884;2022-11-14T02:40:15;101073.97;;;5.48;100.00
16690;BME280;8458;52.220;9.884;2022-11-14T02:42:42;101076.94;;;5.46;100.00
16690;BME280;8458;52.220;9.884;2022-11-14T02:45:09;101079.09;;;5.44;100.00
16690;BME280;8458;52.220;9.884;2022-11-14T02:47:36;101071.88;;;5.43;100.00
16690;BME280;8458;52.220;9.884;2022-11-14T02:50:03;101079.53;;;5.41;100.00
16690;BME280;8458;52.220;9.884;2022-11-14T02:52:30;101072.34;;;5.40;100.00
16690;BME280;8458;52.220;9.884;2022-11-14T02:54:57;101068.97;;;5.38;100.00
16690;BME280;8458;52.220;9.884;2022-11-14T02:57:24;101074.47;;;5.38;100.00
16690;BME280;8458;52.220;9.884;2022-11-14T02:59:50;101065.56;;;5.36;100.00
16690;BME280;8458;52.220;9.884;2022-11-14T03:02:17;101058.56;;;5.40;100.00
16690;BME280;8458;52.220;9.884;2022-11-14T03:04:43;101059.19;;;5.42;100.00
16690;BME280;8458;52.220;9.884;2022-11-14T03:07:09;101057.53;;;5.41;100.00
16690;BME280;8458;52.220;9.884;2022-11-14T03:09:36;101059.63;;;5.46;100.00
16690;BME280;8458;52.220;9.884;2022-11-14T03:12:05;101049.44;;;5.46;100.00
16690;BME280;8458;52.220;9.884;2022-11-14T03:14:31;101051.59;;;5.44;100.00
16690;BME280;8458;52.220;9.884;2022-11-14T03:16:58;101050.50;;;5.45;100.00
16690;BME280;8458;52.220;9.884;2022-11-14T03:19:24;101056.22;;;5.44;100.00
16690;BME280;8458;52.220;9.884;2022-11-14T03:21:50;101049.50;;;5.39;100.00
16690;BME280;8458;52.220;9.884;2022-11-14T03:24:17;101044.38;;;5.43;100.00
16690;BME280;8458;52.220;9.884;2022-11-14T03:26:43;101050.53;;;5.38;100.00
16690;BME280;8458;52.220;9.884;2022-11-14T03:29:11;101044.44;;;5.36;100.00
16690;BME280;8458;52.220;9.884;2022-11-14T03:31:38;101038.06;;;5.36;100.00
16690;BME280;8458;52.220;9.884;2022-11-14T03:34:04;101045.72;;;5.34;100.00
16690;BME280;8458;52.220;9.884;2022-11-14T03:36:31;101025.41;;;5.35;100.00
16690;BME280;8458;52.220;9.884;2022-11-14T03:38:57;101035.31;;;5.36;100.00
16690;BME280;8458;52.220;9.884;2022-11-14T03:41:23;101031.97;;;5.34;100.00
16690;BME280;8458;52.220;9.884;2022-11-14T03:43:50;101027.06;;;5.36;100.00
16690;BME280;8458;52.220;9.884;2022-11-14T03:46:18;101030.91;;;5.35;100.00
16690;BME280;8458;52.220;9.884;2022-11-14T03:48:44;101019.91;;;5.35;100.00
16690;BME280;8458;52.220;9.884;2022-11-14T03:51:11;101014.41;;;5.35;100.00
16690;BME280;8458;52.220;9.884;2022-11-14T03:53:37;101012.28;;;5.37;100.00
16690;BME280;8458;52.220;9.884;2022-11-14T03:56:04;101013.16;;;5.31;100.00
16690;BME280;8458;52.220;9.884;2022-11-14T03:58:30;101012.75;;;5.27;100.00
16690;BME280;8458;52.220;9.884;2022-11-14T04:00:57;101003.03;;;5.25;100.00
16690;BME280;8458;52.220;9.884;2022-11-14T04:03:25;100996.31;;;5.20;100.00
16690;BME280;8458;52.220;9.884;2022-11-14T04:05:51;100993.38;;;5.15;100.00
16690;BME280;8458;52.220;9.884;2022-11-14T04:08:18;101000.19;;;5.06;100.00
16690;BME280;8458;52.220;9.884;2022-11-14T04:10:45;101004.03;;;4.98;100.00
16690;BME280;8458;52.220;9.884;2022-11-14T04:13:12;101000.47;;;4.98;100.00
16690;BME280;8458;52.220;9.884;2022-11-14T04:15:39;101006.56;;;5.00;100.00
16690;BME280;8458;52.220;9.884;2022-11-14T04:18:05;100997.22;;;5.08;100.00
16690;BME280;8458;52.220;9.884;2022-11-14T04:20:33;100990.50;;;5.03;100.00
16690;BME280;8458;52.220;9.884;2022-11-14T04:23:00;100986.28;;;5.01;100.00
16690;BME280;8458;52.220;9.884;2022-11-14T04:25:26;100985.84;;;5.04;100.00
16690;BME280;8458;52.220;9.884;2022-11-14T04:27:53;100983.94;;;5.05;100.00
16690;BME280;8458;52.220;9.884;2022-11-14T04:30:19;100985.41;;;5.07;100.00
16690;BME280;8458;52.220;9.884;2022-11-14T04:32:46;100983.69;;;5.13;100.00
16690;BME280;8458;52.220;9.884;2022-11-14T04:35:13;100993.38;;;5.15;100.00
16690;BME280;8458;52.220;9.884;2022-11-14T04:37:41;100982.81;;;5.12;100.00
16690;BME280;8458;52.220;9.884;2022-11-14T04:40:08;100982.22;;;5.10;100.00
16690;BME280;8458;52.220;9.884;2022-11-14T04:42:35;100972.91;;;5.11;100.00
16690;BME280;8458;52.220;9.884;2022-11-14T04:45:02;100982.38;;;5.15;100.00
16690;BME280;8458;52.220;9.884;2022-11-14T04:47:28;100976.00;;;5.21;100.00
16690;BME280;8458;52.220;9.884;2022-11-14T04:49:55;100968.16;;;5.25;100.00
16690;BME280;8458;52.220;9.884;2022-11-14T04:52:21;100959.84;;;5.32;100.00
16690;BME280;8458;52.220;9.884;2022-11-14T04:54:49;100959.06;;;5.25;100.00
16690;BME280;8458;52.220;9.884;2022-11-14T04:57:15;100966.53;;;5.17;100.00
16690;BME280;8458;52.220;9.884;2022-11-14T04:59:42;100969.72;;;5.14;100.00
16690;BME280;8458;52.220;9.884;2022-11-14T05:02:09;100963.13;;;5.15;100.00
16690;BME280;8458;52.220;9.884;2022-11-14T05:04:35;100966.97;;;5.14;100.00
16690;BME280;8458;52.220;9.884;2022-11-14T05:07:02;100959.16;;;5.11;100.00
16690;BME280;8458;52.220;9.884;2022-11-14T05:09:28;100955.38;;;5.06;100.00
16690;BME280;8458;52.220;9.884;2022-11-14T05:11:56;100955.00;;;5.02;100.00
16690;BME280;8458;52.220;9.884;2022-11-14T05:14:22;100958.41;;;4.97;100.00
16690;BME280;8458;52.220;9.884;2022-11-14T05:16:49;100961.41;;;4.89;100.00
16690;BME280;8458;52.220;9.884;2022-11-14T05:19:15;100952.53;;;4.87;100.00
16690;BME280;8458;52.220;9.884;2022-11-14T05:21:42;100963.09;;;4.90;100.00
16690;BME280;8458;52.220;9.884;2022-11-14T05:24:08;100960.56;;;4.89;100.00
16690;BME280;8458;52.220;9.884;2022-11-14T05:26:35;100963.53;;;4.87;100.00
16690;BME280;8458;52.220;9.884;2022-11-14T05:29:03;100953.38;;;4.88;100.00
16690;BME280;8458;52.220;9.884;2022-11-14T05:31:29;100956.56;;;4.84;100.00
16690;BME280;8458;52.220;9.884;2022-11-14T05:33:56;100962.31;;;4.76;100.00
16690;BME280;8458;52.220;9.884;2022-11-14T05:36:22;100964.91;;;4.71;100.00
16690;BME280;8458;52.220;9.884;2022-11-14T05:38:49;100965.34;;;4.68;100.00
16690;BME280;8458;52.220;9.884;2022-11-14T05:41:18;100961.94;;;4.66;100.00
16690;BME280;8458;52.220;9.884;2022-11-14T05:43:45;100960.06;;;4.66;100.00
16690;BME280;8458;52.220;9.884;2022-11-14T05:46:14;100965.34;;;4.68;100.00
16690;BME280;8458;52.220;9.884;2022-11-14T05:48:41;100957.72;;;4.70;100.00
16690;BME280;8458;52.220;9.884;2022-11-14T05:51:10;100966.13;;;4.75;100.00
16690;BME280;8458;52.220;9.884;2022-11-14T05:53:37;100952.38;;;4.75;100.00
16690;BME280;8458;52.220;9.884;2022-11-14T05:56:06;100952.16;;;4.77;100.00
16690;BME280;8458;52.220;9.884;2022-11-14T05:58:34;100940.50;;;4.81;100.00
16690;BME280;8458;52.220;9.884;2022-11-14T06:01:02;100932.47;;;4.87;100.00
16690;BME280;8458;52.220;9.884;2022-11-14T06:03:31;100931.75;;;4.98;100.00
16690;BME280;8458;52.220;9.884;2022-11-14T06:05:59;100929.66;;;4.93;100.00
16690;BME280;8458;52.220;9.884;2022-11-14T06:08:26;100939.38;;;4.96;100.00
16690;BME280;8458;52.220;9.884;2022-11-14T06:10:53;100934.34;;;4.93;100.00
16690;BME280;8458;52.220;9.884;2022-11-14T06:13:20;100936.28;;;4.85;100.00
16690;BME280;8458;52.220;9.884;2022-11-14T06:15:48;100936.06;;;4.87;100.00
16690;BME280;8458;52.220;9.884;2022-11-14T06:18:14;100931.81;;;4.84;100.00
16690;BME280;8458;52.220;9.884;2022-11-14T06:20:42;100935.66;;;4.83;100.00
16690;BME280;8458;52.220;9.884;2022-11-14T06:23:09;100928.03;;;4.85;100.00
16690;BME280;8458;52.220;9.884;2022-11-14T06:25:35;100919.63;;;4.80;100.00
16690;BME280;8458;52.220;9.884;2022-11-14T06:28:02;100927.22;;;4.78;100.00
16690;BME280;8458;52.220;9.884;2022-11-14T06:30:28;100925.09;;;4.80;100.00
16690;BME280;8458;52.220;9.884;2022-11-14T06:32:56;100929.50;;;4.88;100.00
16690;BME280;8458;52.220;9.884;2022-11-14T06:35:23;100924.19;;;4.93;100.00
16690;BME280;8458;52.220;9.884;2022-11-14T06:37:50;100931.75;;;4.98;100.00
16690;BME280;8458;52.220;9.884;2022-11-14T06:40:17;100927.50;;;5.02;100.00
16690;BME280;8458;52.220;9.884;2022-11-14T06:42:43;100924.94;;;5.07;100.00
16690;BME280;8458;52.220;9.884;2022-11-14T06:45:10;100923.69;;;5.03;100.00
16690;BME280;8458;52.220;9.884;2022-11-14T06:47:36;100925.38;;;5.04;100.00
16690;BME280;8458;52.220;9.884;2022-11-14T06:50:03;100929.59;;;5.07;100.00
16690;BME280;8458;52.220;9.884;2022-11-14T06:52:30;100929.38;;;5.08;100.00
16690;BME280;8458;52.220;9.884;2022-11-14T06:54:57;100928.28;;;5.09;100.00
16690;BME280;8458;52.220;9.884;2022-11-14T06:57:24;100921.91;;;5.15;100.00
16690;BME280;8458;52.220;9.884;2022-11-14T06:59:50;100920.91;;;5.10;100.00
16690;BME280;8458;52.220;9.884;2022-11-14T07:02:17;100921.91;;;5.15;100.00
16690;BME280;8458;52.220;9.884;2022-11-14T07:04:43;100928.47;;;5.14;100.00
16690;BME280;8458;52.220;9.884;2022-11-14T07:07:10;100936.28;;;5.17;100.00
16690;BME280;8458;52.220;9.884;2022-11-14T07:09:36;100933.31;;;5.19;100.00
16690;BME280;8458;52.220;9.884;2022-11-14T07:12:04;100930.78;;;5.17;100.00
16690;BME280;8458;52.220;9.884;2022-11-14T07:14:31;100930.34;;;5.20;100.00
16690;BME280;8458;52.220;9.884;2022-11-14T07:16:58;100932.00;;;5.21;100.00
16690;BME280;8458;52.220;9.884;2022-11-14T07:19:24;100919.50;;;5.26;100.00
16690;BME280;8458;52.220;9.884;2022-11-14T07:21:51;100915.44;;;5.28;100.00
16690;BME280;8458;52.220;9.884;2022-11-14T07:24:17;100911.41;;;5.31;100.00
16690;BME280;8458;52.220;9.884;2022-11-14T07:26:44;100918.44;;;5.27;100.00
16690;BME280;8458;52.220;9.884;2022-11-14T07:29:12;100921.19;;;5.27;100.00
16690;BME280;8458;52.220;9.884;2022-11-14T07:31:39;100929.81;;;5.30;100.00
16690;BME280;8458;52.220;9.884;2022-11-14T07:34:07;100925.22;;;5.24;100.00
16690;BME280;8458;52.220;9.884;2022-11-14T07:36:33;100913.34;;;5.30;100.00
16690;BME280;8458;52.220;9.884;2022-11-14T07:39:00;100925.78;;;5.33;100.00
16690;BME280;8458;52.220;9.884;2022-11-14T07:41:26;100939.06;;;5.36;100.00
16690;BME280;8458;52.220;9.884;2022-11-14T07:43:53;100934.00;;;5.33;100.00
16690;BME280;8458;52.220;9.884;2022-11-14T07:46:20;100924.19;;;5.18;100.00
16690;BME280;8458;52.220;9.884;2022-11-14T07:48:47;100931.34;;;5.26;100.00
16690;BME280;8458;52.220;9.884;2022-11-14T07:51:15;100919.22;;;5.34;100.00
16690;BME280;8458;52.220;9.884;2022-11-14T07:53:42;100922.41;;;5.31;100.00
16690;BME280;8458;52.220;9.884;2022-11-14T07:56:09;100916.25;;;5.35;100.00
16690;BME280;8458;52.220;9.884;2022-11-14T07:58:36;100914.72;;;5.39;100.00
16690;BME280;8458;52.220;9.884;2022-11-14T08:01:03;100907.75;;;5.37;100.00
16690;BME280;8458;52.220;9.884;2022-11-14T08:03:32;100914.97;;;5.38;100.00
16690;BME280;8458;52.220;9.884;2022-11-14T08:06:00;100912.00;;;5.33;100.00
16690;BME280;8458;52.220;9.884;2022-11-14T08:08:26;100913.50;;;5.35;100.00
16690;BME280;8458;52.220;9.884;2022-11-14T08:10:55;100912.81;;;5.40;100.00
16690;BME280;8458;52.220;9.884;2022-11-14T08:13:21;100915.72;;;5.45;100.00
16690;BME280;8458;52.220;9.884;2022-11-14T08:15:48;100914.22;;;5.49;100.00
16690;BME280;8458;52.220;9.884;2022-11-14T08:18:14;100913.16;;;5.50;100.00
16690;BME280;8458;52.220;9.884;2022-11-14T08:20:42;100921.22;;;5.45;100.00
16690;BME280;8458;52.220;9.884;2022-11-14T08:23:09;100920.50;;;5.31;100.00
16690;BME280;8458;52.220;9.884;2022-11-14T08:25:36;100922.56;;;5.36;100.00
16690;BME280;8458;52.220;9.884;2022-11-14T08:28:02;100923.88;;;5.33;100.00
16690;BME280;8458;52.220;9.884;2022-11-14T08:30:29;100920.47;;;5.38;100.00
16690;BME280;8458;52.220;9.884;2022-11-14T08:32:56;100924.56;;;5.29;100.00
16690;BME280;8458;52.220;9.884;2022-11-14T08:35:23;100933.56;;;5.36;100.00
16690;BME280;8458;52.220;9.884;2022-11-14T08:37:50;100934.09;;;5.26;100.00
16690;BME280;8458;52.220;9.884;2022-11-14T08:40:17;100941.94;;;5.23;100.00
16690;BME280;8458;52.220;9.884;2022-11-14T08:42:43;100927.59;;;5.20;100.00
16690;BME280;8458;52.220;9.884;2022-11-14T08:45:10;100918.25;;;5.21;100.00
16690;BME280;8458;52.220;9.884;2022-11-14T08:47:36;100916.75;;;5.26;100.00
16690;BME280;8458;52.220;9.884;2022-11-14T08:50:04;100917.47;;;5.14;100.00
16690;BME280;8458;52.220;9.884;2022-11-14T08:52:30;100912.44;;;5.11;100.00
16690;BME280;8458;52.220;9.884;2022-11-14T08:54:58;100917.03;;;5.17;100.00
16690;BME280;8458;52.220;9.884;2022-11-14T08:57:24;100913.84;;;5.20;100.00
16690;BME280;8458;52.220;9.884;2022-11-14T08:59:51;100907.75;;;5.37;100.00
16690;BME280;8458;52.220;9.884;2022-11-14T09:02:17;100916.34;;;5.47;100.00
16690;BME280;8458;52.220;9.884;2022-11-14T09:04:44;100913.59;;;5.47;100.00
16690;BME280;8458;52.220;9.884;2022-11-14T09:07:10;100906.41;;;5.46;100.00
16690;BME280;8458;52.220;9.884;2022-11-14T09:09:37;100909.09;;;5.53;100.00
16690;BME280;8458;52.220;9.884;2022-11-14T09:12:05;100912.94;;;5.52;100.00
16690;BME280;8458;52.220;9.884;2022-11-14T09:14:31;100919.88;;;5.54;100.00
16690;BME280;8458;52.220;9.884;2022-11-14T09:16:58;100911.91;;;5.46;100.00
16690;BME280;8458;52.220;9.884;2022-11-14T09:19:24;100904.78;;;5.38;100.00
16690;BME280;8458;52.220;9.884;2022-11-14T09:21:51;100899.13;;;5.33;100.00
16690;BME280;8458;52.220;9.884;2022-11-14T09:24:17;100906.53;;;5.33;100.00
16690;BME280;8458;52.220;9.884;2022-11-14T09:26:43;100899.19;;;5.27;100.00
16690;BME280;8458;52.220;9.884;2022-11-14T09:29:11;100903.16;;;5.31;100.00
16690;BME280;8458;52.220;9.884;2022-11-14T09:31:38;100893.34;;;5.42;100.00
16690;BME280;8458;52.220;9.884;2022-11-14T09:34:04;100892.06;;;5.44;100.00
16690;BME280;8458;52.220;9.884;2022-11-14T09:36:31;100875.47;;;5.51;100.00
16690;BME280;8458;52.220;9.884;2022-11-14T09:38:57;100871.44;;;5.53;100.00
16690;BME280;8458;52.220;9.884;2022-11-14T09:41:25;100866.41;;;5.50;100.00
16690;BME280;8458;52.220;9.884;2022-11-14T09:47:04;100853.09;;;5.47;100.00
16690;BME280;8458;52.220;9.884;2022-11-14T09:49:36;100848.56;;;5.53;100.00
16690;BME280;8458;52.220;9.884;2022-11-14T09:52:10;100839.41;;;5.59;100.00
16690;BME280;8458;52.220;9.884;2022-11-14T09:54:44;100827.00;;;5.75;100.00
16690;BME280;8458;52.220;9.884;2022-11-14T09:57:14;100829.41;;;5.83;100.00
16690;BME280;8458;52.220;9.884;2022-11-14T09:59:42;100829.41;;;5.83;100.00
16690;BME280;8458;52.220;9.884;2022-11-14T10:02:19;100833.22;;;5.82;100.00
16690;BME280;8458;52.220;9.884;2022-11-14T10:05:00;100834.00;;;5.89;100.00
16690;BME280;8458;52.220;9.884;2022-11-14T10:07:38;100831.81;;;5.98;100.00
16690;BME280;8458;52.220;9.884;2022-11-14T10:10:18;100833.44;;;6.06;100.00
16690;BME280;8458;52.220;9.884;2022-11-14T10:12:56;100827.91;;;6.06;100.00
16690;BME280;8458;52.220;9.884;2022-11-14T10:15:29;100823.34;;;6.00;100.00
16690;BME280;8458;52.220;9.884;2022-11-14T10:18:07;100825.84;;;6.01;100.00
16690;BME280;8458;52.220;9.884;2022-11-14T10:20:41;100825.84;;;6.01;100.00
16690;BME280;8458;52.220;9.884;2022-11-14T10:23:19;100839.66;;;5.95;100.00
16690;BME280;8458;52.220;9.884;2022-11-14T10:25:54;100847.03;;;6.01;100.00
16690;BME280;8458;52.220;9.884;2022-11-14T10:28:35;100832.50;;;6.12;100.00
16690;BME280;8458;52.220;9.884;2022-11-14T10:31:12;100829.41;;;6.20;100.00
16690;BME280;8458;52.220;9.884;2022-11-14T10:33:49;100815.41;;;6.22;99.30
16690;BME280;8458;52.220;9.884;2022-11-14T10:36:24;100820.09;;;6.21;99.32
16690;BME280;8458;52.220;9.884;2022-11-14T10:38:59;100825.59;;;6.21;99.37
16690;BME280;8458;52.220;9.884;2022-11-14T10:41:27;100822.22;;;6.19;99.26
16690;BME280;8458;52.220;9.884;2022-11-14T10:43:54;100826.13;;;6.12;99.74
16690;BME280;8458;52.220;9.884;2022-11-14T10:46:23;100836.31;;;5.92;100.00
16690;BME280;8458;52.220;9.884;2022-11-14T10:48:53;100834.34;;;6.00;100.00
16690;BME280;8458;52.220;9.884;2022-11-14T10:51:23;100820.03;;;6.09;100.00
16690;BME280;8458;52.220;9.884;2022-11-14T10:53:54;100814.19;;;6.18;100.00
16690;BME280;8458;52.220;9.884;2022-11-14T10:56:22;100823.78;;;6.15;100.00
16690;BME280;8458;52.220;9.884;2022-11-14T10:58:49;100821.63;;;6.17;100.00
16690;BME280;8458;52.220;9.884;2022-11-14T11:01:31;100828.19;;;6.16;99.33
16690;BME280;8458;52.220;9.884;2022-11-14T11:04:10;100822.22;;;6.19;100.00
16690;BME280;8458;52.220;9.884;2022-11-14T11:06:37;100812.19;;;6.25;100.00
16690;BME280;8458;52.220;9.884;2022-11-14T11:09:07;100799.72;;;6.22;100.00
16690;BME280;8458;52.220;9.884;2022-11-14T11:11:54;100805.69;;;6.19;100.00
16690;BME280;8458;52.220;9.884;2022-11-14T11:14:22;100807.50;;;6.14;100.00
16690;BME280;8458;52.220;9.884;2022-11-14T11:16:48;100791.91;;;6.07;100.00
16690;BME280;8458;52.220;9.884;2022-11-14T11:19:23;100804.91;;;6.00;100.00
16690;BME280;8458;52.220;9.884;2022-11-14T11:21:51;100806.38;;;5.96;100.00
16690;BME280;8458;52.220;9.884;2022-11-14T11:24:30;100804.28;;;5.98;100.00
16690;BME280;8458;52.220;9.884;2022-11-14T11:27:12;100802.59;;;5.97;100.00
16690;BME280;8458;52.220;9.884;2022-11-14T11:29:39;100802.38;;;5.99;100.00
16690;BME280;8458;52.220;9.884;2022-11-14T11:32:06;100802.38;;;5.99;100.00
16690;BME280;8458;52.220;9.884;2022-11-14T11:34:35;100792.81;;;6.01;100.00
16690;BME280;8458;52.220;9.884;2022-11-14T11:37:04;100790.34;;;6.12;100.00
16690;BME280;8458;52.220;9.884;2022-11-14T11:39:39;100793.50;;;6.15;100.00
16690;BME280;8458;52.220;9.884;2022-11-14T11:42:10;100789.19;;;6.19;100.00
16690;BME280;8458;52.220;9.884;2022-11-14T11:44:43;100780.59;;;6.27;100.00
16690;BME280;8458;52.220;9.884;2022-11-14T11:47:13;100779.28;;;6.30;100.00
16690;BME280;8458;52.220;9.884;2022-11-14T11:49:45;100782.44;;;6.34;100.00
16690;BME280;8458;52.220;9.884;2022-11-14T11:52:16;100790.69;;;6.34;99.84
16690;BME280;8458;52.220;9.884;2022-11-14T11:54:51;100784.59;;;6.43;100.00
16690;BME280;8458;52.220;9.884;2022-11-14T11:57:23;100790.41;;;6.54;100.00
16690;BME280;8458;52.220;9.884;2022-11-14T12:00:00;100779.84;;;6.62;100.00
16690;BME280;8458;52.220;9.884;2022-11-14T12:02:28;100787.91;;;6.76;100.00
16690;BME280;8458;52.220;9.884;2022-11-14T12:04:56;100781.69;;;6.80;100.00
16690;BME280;8458;52.220;9.884;2022-11-14T12:07:32;100774.25;;;6.81;99.63
16690;BME280;8458;52.220;9.884;2022-11-14T12:10:08;100768.75;;;6.81;99.04
16690;BME280;8458;52.220;9.884;2022-11-14T12:12:54;100765.41;;;6.79;98.94
16690;BME280;8458;52.220;9.884;2022-11-14T12:15:27;100762.75;;;6.84;99.38
16690;BME280;8458;52.220;9.884;2022-11-14T12:18:16;100767.31;;;6.90;98.61
16690;BME280;8458;52.220;9.884;2022-11-14T12:21:01;100767.31;;;6.90;98.07
16690;BME280;8458;52.220;9.884;2022-11-14T12:23:57;100771.88;;;6.96;98.96
16690;BME280;8458;52.220;9.884;2022-11-14T12:26:42;100761.91;;;6.95;98.47
16690;BME280;8458;52.220;9.884;2022-11-14T12:29:31;100765.88;;;6.99;98.72
16690;BME280;8458;52.220;9.884;2022-11-14T12:32:03;100765.88;;;6.99;98.03
16690;BME280;8458;52.220;9.884;2022-11-14T12:34:33;100771.16;;;7.01;97.97
16690;BME280;8458;52.220;9.884;2022-11-14T12:37:08;100761.59;;;7.04;98.06
16690;BME280;8458;52.220;9.884;2022-11-14T12:39:36;100759.66;;;7.04;97.97
16690;BME280;8458;52.220;9.884;2022-11-14T12:42:04;100756.41;;;7.07;98.00
16690;BME280;8458;52.220;9.884;2022-11-14T12:44:34;100738.56;;;7.10;97.56
16690;BME280;8458;52.220;9.884;2022-11-14T12:47:16;100743.59;;;7.13;97.69
16690;BME280;8458;52.220;9.884;2022-11-14T12:50:00;100733.75;;;7.17;97.83
16690;BME280;8458;52.220;9.884;2022-11-14T12:52:47;100727.25;;;7.23;98.22
16690;BME280;8458;52.220;9.884;2022-11-14T12:55:51;100720.78;;;7.29;98.64
16690;BME280;8458;52.220;9.884;2022-11-14T12:58:30;100729.06;;;7.29;97.67
16690;BME280;8458;52.220;9.884;2022-11-14T13:01:19;100723.44;;;7.36;98.72
16690;BME280;8458;52.220;9.884;2022-11-14T13:03:59;100720.78;;;7.41;99.02
16690;BME280;8458;52.220;9.884;2022-11-14T13:06:37;100716.69;;;7.44;97.98
16690;BME280;8458;52.220;9.884;2022-11-14T13:09:30;100715.84;;;7.43;97.67
16690;BME280;8458;52.220;9.884;2022-11-14T13:11:58;100710.31;;;7.43;97.78
16690;BME280;8458;52.220;9.884;2022-11-14T13:14:48;100700.81;;;7.51;97.84
16690;BME280;8458;52.220;9.884;2022-11-14T13:17:33;100706.97;;;7.53;97.69